sensor_id;sensor_type;location;lat;lon;timestamp;P1;durP1;ratioP1;P2;durP2;ratioP2
20456;SDS011;10387;51.102;6.848;2022-10-17T00:00:18;11.07;;;10.07;;
20456;SDS011;10387;51.102;6.848;2022-10-17T00:02:44;11.33;;;9.70;;
20456;SDS011;10387;51.102;6.848;2022-10-17T00:05:10;10.33;;;9.20;;
20456;SDS011;10387;51.102;6.848;2022-10-17T00:07:36;10.83;;;9.70;;
20456;SDS011;10387;51.102;6.848;2022-10-17T00:10:03;9.83;;;8.63;;
20456;SDS011;10387;51.102;6.848;2022-10-17T00:12:29;10.33;;;9.33;;
20456;SDS011;10387;51.102;6.848;2022-10-17T00:14:55;9.87;;;8.97;;
20456;SDS011;10387;51.102;6.848;2022-10-17T00:17:21;10.97;;;8.90;;
20456;SDS011;10387;51.102;6.848;2022-10-17T00:19:47;9.80;;;8.80;;
20456;SDS011;10387;51.102;6.848;2022-10-17T00:22:13;9.47;;;8.53;;
20456;SDS011;10387;51.102;6.848;2022-10-17T00:24:40;11.23;;;8.60;;
20456;SDS011;10387;51.102;6.848;2022-10-17T00:27:06;11.60;;;8.53;;
20456;SDS011;10387;51.102;6.848;2022-10-17T00:29:32;9.80;;;8.80;;
20456;SDS011;10387;51.102;6.848;2022-10-17T00:31:58;14.13;;;8.90;;
20456;SDS011;10387;51.102;6.848;2022-10-17T00:34:24;9.23;;;8.33;;
20456;SDS011;10387;51.102;6.848;2022-10-17T00:36:50;9.63;;;8.73;;
20456;SDS011;10387;51.102;6.848;2022-10-17T00:39:16;11.53;;;8.87;;
20456;SDS011;10387;51.102;6.848;2022-10-17T00:41:42;9.13;;;8.23;;
20456;SDS011;10387;51.102;6.848;2022-10-17T00:47:04;11.47;;;8.60;;
20456;SDS011;10387;51.102;6.848;2022-10-17T00:49:33;9.73;;;8.73;;
20456;SDS011;10387;51.102;6.848;2022-10-17T00:52:01;8.83;;;8.03;;
20456;SDS011;10387;51.102;6.848;2022-10-17T00:54:30;9.77;;;8.60;;
20456;SDS011;10387;51.102;6.848;2022-10-17T00:56:57;10.13;;;8.33;;
20456;SDS011;10387;51.102;6.848;2022-10-17T00:59:25;9.57;;;8.37;;
20456;SDS011;10387;51.102;6.848;2022-10-17T01:02:01;10.50;;;9.50;;
20456;SDS011;10387;51.102;6.848;2022-10-17T01:04:28;11.17;;;8.23;;
20456;SDS011;10387;51.102;6.848;2022-10-17T01:06:54;14.13;;;8.87;;
20456;SDS011;10387;51.102;6.848;2022-10-17T01:09:20;8.87;;;8.00;;
20456;SDS011;10387;51.102;6.848;2022-10-17T01:11:51;10.30;;;8.90;;
20456;SDS011;10387;51.102;6.848;2022-10-17T01:14:46;12.43;;;8.87;;
20456;SDS011;10387;51.102;6.848;2022-10-17T01:25:12;9.67;;;8.33;;
20456;SDS011;10387;51.102;6.848;2022-10-17T01:27:28;11.33;;;8.43;;
20456;SDS011;10387;51.102;6.848;2022-10-17T01:30:08;9.80;;;8.80;;
20456;SDS011;10387;51.102;6.848;2022-10-17T01:37:40;10.37;;;9.17;;
20456;SDS011;10387;51.102;6.848;2022-10-17T01:40:09;9.83;;;8.83;;
20456;SDS011;10387;51.102;6.848;2022-10-17T01:45:05;10.57;;;9.47;;
20456;SDS011;10387;51.102;6.848;2022-10-17T01:47:34;11.00;;;9.80;;
20456;SDS011;10387;51.102;6.848;2022-10-17T01:50:02;11.00;;;9.70;;
20456;SDS011;10387;51.102;6.848;2022-10-17T01:52:34;11.60;;;9.63;;
20456;SDS011;10387;51.102;6.848;2022-10-17T01:55:07;11.33;;;9.07;;
20456;SDS011;10387;51.102;6.848;2022-10-17T01:57:36;11.17;;;8.97;;
20456;SDS011;10387;51.102;6.848;2022-10-17T02:00:05;10.30;;;9.30;;
20456;SDS011;10387;51.102;6.848;2022-10-17T02:02:37;10.07;;;9.17;;
20456;SDS011;10387;51.102;6.848;2022-10-17T02:05:05;11.57;;;9.40;;
20456;SDS011;10387;51.102;6.848;2022-10-17T02:07:31;10.07;;;9.10;;
20456;SDS011;10387;51.102;6.848;2022-10-17T02:09:58;11.53;;;8.60;;
20456;SDS011;10387;51.102;6.848;2022-10-17T02:20:28;11.20;;;9.33;;
20456;SDS011;10387;51.102;6.848;2022-10-17T02:23:18;10.23;;;8.70;;
20456;SDS011;10387;51.102;6.848;2022-10-17T02:28:19;9.40;;;8.37;;
20456;SDS011;10387;51.102;6.848;2022-10-17T02:33:14;9.03;;;8.20;;
20456;SDS011;10387;51.102;6.848;2022-10-17T02:35:44;11.40;;;8.80;;
20456;SDS011;10387;51.102;6.848;2022-10-17T02:38:12;9.00;;;8.10;;
20456;SDS011;10387;51.102;6.848;2022-10-17T02:40:40;10.33;;;8.33;;
20456;SDS011;10387;51.102;6.848;2022-10-17T02:43:07;9.37;;;8.40;;
20456;SDS011;10387;51.102;6.848;2022-10-17T02:45:34;9.47;;;8.40;;
20456;SDS011;10387;51.102;6.848;2022-10-17T02:50:52;9.47;;;8.37;;
20456;SDS011;10387;51.102;6.848;2022-10-17T02:53:24;9.93;;;8.10;;
20456;SDS011;10387;51.102;6.848;2022-10-17T02:55:56;10.80;;;8.47;;
20456;SDS011;10387;51.102;6.848;2022-10-17T02:58:24;9.70;;;8.70;;
20456;SDS011;10387;51.102;6.848;2022-10-17T03:00:51;8.77;;;7.83;;
20456;SDS011;10387;51.102;6.848;2022-10-17T03:03:22;9.03;;;8.13;;
20456;SDS011;10387;51.102;6.848;2022-10-17T03:05:49;10.13;;;8.10;;
20456;SDS011;10387;51.102;6.848;2022-10-17T03:08:16;9.43;;;8.43;;
20456;SDS011;10387;51.102;6.848;2022-10-17T03:10:42;9.43;;;8.40;;
20456;SDS011;10387;51.102;6.848;2022-10-17T03:13:08;9.30;;;8.30;;
20456;SDS011;10387;51.102;6.848;2022-10-17T03:15:38;9.73;;;8.00;;
20456;SDS011;10387;51.102;6.848;2022-10-17T03:18:04;9.43;;;8.47;;
20456;SDS011;10387;51.102;6.848;2022-10-17T03:20:31;10.53;;;8.73;;
20456;SDS011;10387;51.102;6.848;2022-10-17T03:22:57;11.67;;;8.50;;
20456;SDS011;10387;51.102;6.848;2022-10-17T03:25:23;9.87;;;8.23;;
20456;SDS011;10387;51.102;6.848;2022-10-17T03:27:50;8.67;;;7.77;;
20456;SDS011;10387;51.102;6.848;2022-10-17T03:30:16;8.33;;;7.43;;
20456;SDS011;10387;51.102;6.848;2022-10-17T03:32:43;11.00;;;7.83;;
20456;SDS011;10387;51.102;6.848;2022-10-17T03:35:09;8.87;;;8.03;;
20456;SDS011;10387;51.102;6.848;2022-10-17T03:37:36;8.43;;;7.63;;
20456;SDS011;10387;51.102;6.848;2022-10-17T03:40:03;9.33;;;7.83;;
20456;SDS011;10387;51.102;6.848;2022-10-17T03:42:30;9.83;;;7.40;;
20456;SDS011;10387;51.102;6.848;2022-10-17T03:44:56;9.67;;;7.83;;
20456;SDS011;10387;51.102;6.848;2022-10-17T03:47:22;8.93;;;7.83;;
20456;SDS011;10387;51.102;6.848;2022-10-17T03:49:49;8.30;;;7.50;;
20456;SDS011;10387;51.102;6.848;2022-10-17T03:52:18;8.57;;;7.67;;
20456;SDS011;10387;51.102;6.848;2022-10-17T03:54:44;9.23;;;7.77;;
20456;SDS011;10387;51.102;6.848;2022-10-17T03:57:10;10.33;;;7.20;;
20456;SDS011;10387;51.102;6.848;2022-10-17T03:59:37;9.17;;;7.13;;
20456;SDS011;10387;51.102;6.848;2022-10-17T04:02:09;8.37;;;7.47;;
20456;SDS011;10387;51.102;6.848;2022-10-17T04:04:35;9.77;;;8.10;;
20456;SDS011;10387;51.102;6.848;2022-10-17T04:07:02;8.40;;;7.50;;
20456;SDS011;10387;51.102;6.848;2022-10-17T04:09:28;8.60;;;7.70;;
20456;SDS011;10387;51.102;6.848;2022-10-17T04:12:00;9.47;;;7.17;;
20456;SDS011;10387;51.102;6.848;2022-10-17T04:14:26;9.73;;;7.47;;
20456;SDS011;10387;51.102;6.848;2022-10-17T04:16:52;9.63;;;7.77;;
20456;SDS011;10387;51.102;6.848;2022-10-17T04:19:20;11.70;;;8.07;;
20456;SDS011;10387;51.102;6.848;2022-10-17T04:21:46;11.23;;;7.90;;
20456;SDS011;10387;51.102;6.848;2022-10-17T04:24:13;9.80;;;7.13;;
20456;SDS011;10387;51.102;6.848;2022-10-17T04:26:50;8.50;;;7.57;;
20456;SDS011;10387;51.102;6.848;2022-10-17T04:29:17;10.33;;;7.27;;
20456;SDS011;10387;51.102;6.848;2022-10-17T04:31:46;9.23;;;8.07;;
20456;SDS011;10387;51.102;6.848;2022-10-17T04:34:21;9.07;;;7.60;;
20456;SDS011;10387;51.102;6.848;2022-10-17T04:36:47;9.23;;;7.27;;
20456;SDS011;10387;51.102;6.848;2022-10-17T04:39:13;8.37;;;7.47;;
20456;SDS011;10387;51.102;6.848;2022-10-17T04:41:40;8.43;;;7.20;;
20456;SDS011;10387;51.102;6.848;2022-10-17T04:44:08;9.90;;;7.70;;
20456;SDS011;10387;51.102;6.848;2022-10-17T04:46:37;8.00;;;7.20;;
20456;SDS011;10387;51.102;6.848;2022-10-17T04:49:04;8.00;;;7.20;;
20456;SDS011;10387;51.102;6.848;2022-10-17T04:51:31;9.20;;;7.73;;
20456;SDS011;10387;51.102;6.848;2022-10-17T04:54:16;10.57;;;7.90;;
20456;SDS011;10387;51.102;6.848;2022-10-17T04:56:46;9.00;;;7.37;;
20456;SDS011;10387;51.102;6.848;2022-10-17T04:59:13;9.57;;;7.80;;
20456;SDS011;10387;51.102;6.848;2022-10-17T05:01:41;7.53;;;6.60;;
20456;SDS011;10387;51.102;6.848;2022-10-17T05:04:08;9.10;;;7.70;;
20456;SDS011;10387;51.102;6.848;2022-10-17T05:06:35;8.80;;;7.43;;
20456;SDS011;10387;51.102;6.848;2022-10-17T05:09:32;8.70;;;7.40;;
20456;SDS011;10387;51.102;6.848;2022-10-17T05:11:58;8.60;;;7.30;;
20456;SDS011;10387;51.102;6.848;2022-10-17T05:14:25;10.17;;;7.30;;
20456;SDS011;10387;51.102;6.848;2022-10-17T05:16:51;8.87;;;7.40;;
20456;SDS011;10387;51.102;6.848;2022-10-17T05:19:19;8.17;;;7.33;;
20456;SDS011;10387;51.102;6.848;2022-10-17T05:21:49;8.23;;;7.17;;
20456;SDS011;10387;51.102;6.848;2022-10-17T05:24:16;8.53;;;6.97;;
20456;SDS011;10387;51.102;6.848;2022-10-17T05:26:42;9.13;;;7.63;;
20456;SDS011;10387;51.102;6.848;2022-10-17T05:29:08;8.33;;;7.10;;
20456;SDS011;10387;51.102;6.848;2022-10-17T05:31:39;9.70;;;7.10;;
20456;SDS011;10387;51.102;6.848;2022-10-17T05:34:06;9.80;;;7.57;;
20456;SDS011;10387;51.102;6.848;2022-10-17T05:36:33;10.03;;;7.23;;
20456;SDS011;10387;51.102;6.848;2022-10-17T05:39:01;8.93;;;7.50;;
20456;SDS011;10387;51.102;6.848;2022-10-17T05:41:28;7.90;;;7.07;;
20456;SDS011;10387;51.102;6.848;2022-10-17T05:43:54;8.10;;;7.30;;
20456;SDS011;10387;51.102;6.848;2022-10-17T05:46:33;9.23;;;6.33;;
20456;SDS011;10387;51.102;6.848;2022-10-17T05:48:59;9.40;;;7.10;;
20456;SDS011;10387;51.102;6.848;2022-10-17T05:51:25;10.13;;;7.47;;
20456;SDS011;10387;51.102;6.848;2022-10-17T05:53:53;10.67;;;7.60;;
20456;SDS011;10387;51.102;6.848;2022-10-17T05:56:23;11.30;;;8.13;;
20456;SDS011;10387;51.102;6.848;2022-10-17T05:58:49;8.80;;;6.60;;
20456;SDS011;10387;51.102;6.848;2022-10-17T06:01:26;8.83;;;7.23;;
20456;SDS011;10387;51.102;6.848;2022-10-17T06:03:52;10.30;;;6.97;;
20456;SDS011;10387;51.102;6.848;2022-10-17T06:06:18;8.60;;;6.80;;
20456;SDS011;10387;51.102;6.848;2022-10-17T06:08:46;11.87;;;7.80;;
20456;SDS011;10387;51.102;6.848;2022-10-17T06:11:17;8.03;;;7.03;;
20456;SDS011;10387;51.102;6.848;2022-10-17T06:13:44;8.60;;;6.57;;
20456;SDS011;10387;51.102;6.848;2022-10-17T06:16:16;10.70;;;6.83;;
20456;SDS011;10387;51.102;6.848;2022-10-17T06:18:43;7.67;;;6.63;;
20456;SDS011;10387;51.102;6.848;2022-10-17T06:21:10;8.97;;;7.27;;
20456;SDS011;10387;51.102;6.848;2022-10-17T06:23:42;7.37;;;6.67;;
20456;SDS011;10387;51.102;6.848;2022-10-17T06:26:28;9.00;;;6.90;;
20456;SDS011;10387;51.102;6.848;2022-10-17T06:28:55;8.97;;;6.97;;
20456;SDS011;10387;51.102;6.848;2022-10-17T06:31:21;9.57;;;7.10;;
20456;SDS011;10387;51.102;6.848;2022-10-17T06:33:48;8.93;;;7.50;;
20456;SDS011;10387;51.102;6.848;2022-10-17T06:36:14;8.87;;;6.90;;
20456;SDS011;10387;51.102;6.848;2022-10-17T06:38:41;10.20;;;7.40;;
20456;SDS011;10387;51.102;6.848;2022-10-17T06:41:16;10.47;;;7.37;;
20456;SDS011;10387;51.102;6.848;2022-10-17T06:43:44;8.10;;;6.50;;
20456;SDS011;10387;51.102;6.848;2022-10-17T06:46:29;10.93;;;7.57;;
20456;SDS011;10387;51.102;6.848;2022-10-17T06:48:58;10.23;;;6.80;;
20456;SDS011;10387;51.102;6.848;2022-10-17T06:51:47;7.10;;;6.40;;
20456;SDS011;10387;51.102;6.848;2022-10-17T06:54:16;10.97;;;7.53;;
20456;SDS011;10387;51.102;6.848;2022-10-17T06:57:04;8.57;;;6.90;;
20456;SDS011;10387;51.102;6.848;2022-10-17T06:59:48;8.27;;;6.67;;
20456;SDS011;10387;51.102;6.848;2022-10-17T07:02:22;8.17;;;6.53;;
20456;SDS011;10387;51.102;6.848;2022-10-17T07:04:49;8.40;;;6.80;;
20456;SDS011;10387;51.102;6.848;2022-10-17T07:07:15;7.13;;;6.40;;
20456;SDS011;10387;51.102;6.848;2022-10-17T07:09:41;11.47;;;6.60;;
20456;SDS011;10387;51.102;6.848;2022-10-17T07:12:08;6.73;;;6.13;;
20456;SDS011;10387;51.102;6.848;2022-10-17T07:14:40;7.17;;;6.03;;
20456;SDS011;10387;51.102;6.848;2022-10-17T07:17:06;6.80;;;6.10;;
20456;SDS011;10387;51.102;6.848;2022-10-17T07:19:33;6.83;;;6.13;;
20456;SDS011;10387;51.102;6.848;2022-10-17T07:21:59;8.03;;;6.33;;
20456;SDS011;10387;51.102;6.848;2022-10-17T07:24:25;8.57;;;6.07;;
20456;SDS011;10387;51.102;6.848;2022-10-17T07:27:11;7.67;;;6.40;;
20456;SDS011;10387;51.102;6.848;2022-10-17T07:29:37;10.23;;;6.20;;
20456;SDS011;10387;51.102;6.848;2022-10-17T07:32:26;8.50;;;6.30;;
20456;SDS011;10387;51.102;6.848;2022-10-17T07:34:52;7.33;;;6.67;;
20456;SDS011;10387;51.102;6.848;2022-10-17T07:37:18;7.83;;;6.90;;
20456;SDS011;10387;51.102;6.848;2022-10-17T07:39:51;8.87;;;6.47;;
20456;SDS011;10387;51.102;6.848;2022-10-17T07:42:17;6.67;;;6.07;;
20456;SDS011;10387;51.102;6.848;2022-10-17T07:44:43;7.07;;;6.37;;
20456;SDS011;10387;51.102;6.848;2022-10-17T07:47:11;6.57;;;5.93;;
20456;SDS011;10387;51.102;6.848;2022-10-17T07:49:38;7.63;;;6.30;;
20456;SDS011;10387;51.102;6.848;2022-10-17T07:52:09;6.33;;;5.57;;
20456;SDS011;10387;51.102;6.848;2022-10-17T07:54:35;9.53;;;5.57;;
20456;SDS011;10387;51.102;6.848;2022-10-17T07:57:02;7.70;;;5.63;;
20456;SDS011;10387;51.102;6.848;2022-10-17T07:59:28;9.50;;;5.93;;
20456;SDS011;10387;51.102;6.848;2022-10-17T08:01:57;7.20;;;5.60;;
20456;SDS011;10387;51.102;6.848;2022-10-17T08:04:23;7.93;;;5.67;;
20456;SDS011;10387;51.102;6.848;2022-10-17T08:06:50;6.93;;;6.00;;
20456;SDS011;10387;51.102;6.848;2022-10-17T08:09:16;7.80;;;5.60;;
20456;SDS011;10387;51.102;6.848;2022-10-17T08:11:42;7.10;;;5.63;;
20456;SDS011;10387;51.102;6.848;2022-10-17T08:14:09;6.23;;;5.63;;
20456;SDS011;10387;51.102;6.848;2022-10-17T08:16:35;8.97;;;5.27;;
20456;SDS011;10387;51.102;6.848;2022-10-17T08:19:01;6.70;;;5.53;;
20456;SDS011;10387;51.102;6.848;2022-10-17T08:21:28;7.67;;;5.90;;
20456;SDS011;10387;51.102;6.848;2022-10-17T08:23:54;7.47;;;5.83;;
20456;SDS011;10387;51.102;6.848;2022-10-17T08:26:20;6.57;;;5.27;;
20456;SDS011;10387;51.102;6.848;2022-10-17T08:28:46;8.20;;;5.97;;
20456;SDS011;10387;51.102;6.848;2022-10-17T08:31:14;9.13;;;5.67;;
20456;SDS011;10387;51.102;6.848;2022-10-17T08:33:42;7.27;;;5.73;;
20456;SDS011;10387;51.102;6.848;2022-10-17T08:36:08;6.87;;;5.10;;
20456;SDS011;10387;51.102;6.848;2022-10-17T08:38:35;5.83;;;5.20;;
20456;SDS011;10387;51.102;6.848;2022-10-17T08:41:03;6.17;;;5.40;;
20456;SDS011;10387;51.102;6.848;2022-10-17T08:43:37;7.43;;;5.10;;
20456;SDS011;10387;51.102;6.848;2022-10-17T08:46:05;7.80;;;5.53;;
20456;SDS011;10387;51.102;6.848;2022-10-17T08:48:40;6.00;;;5.37;;
20456;SDS011;10387;51.102;6.848;2022-10-17T08:51:29;5.93;;;4.90;;
20456;SDS011;10387;51.102;6.848;2022-10-17T08:56:25;5.57;;;4.83;;
20456;SDS011;10387;51.102;6.848;2022-10-17T08:58:52;8.20;;;5.10;;
20456;SDS011;10387;51.102;6.848;2022-10-17T09:06:34;7.20;;;4.83;;
20456;SDS011;10387;51.102;6.848;2022-10-17T09:09:18;7.00;;;4.83;;
20456;SDS011;10387;51.102;6.848;2022-10-17T09:14:36;5.70;;;4.63;;
20456;SDS011;10387;51.102;6.848;2022-10-17T09:19:38;5.67;;;4.80;;
20456;SDS011;10387;51.102;6.848;2022-10-17T09:22:07;6.00;;;4.47;;
20456;SDS011;10387;51.102;6.848;2022-10-17T09:24:45;10.00;;;5.27;;
20456;SDS011;10387;51.102;6.848;2022-10-17T09:30:25;6.33;;;4.37;;
20456;SDS011;10387;51.102;6.848;2022-10-17T09:32:53;7.00;;;4.53;;
20456;SDS011;10387;51.102;6.848;2022-10-17T09:35:20;8.57;;;4.90;;
20456;SDS011;10387;51.102;6.848;2022-10-17T09:37:47;5.77;;;5.00;;
20456;SDS011;10387;51.102;6.848;2022-10-17T09:40:25;9.03;;;5.13;;
20456;SDS011;10387;51.102;6.848;2022-10-17T09:42:52;6.87;;;4.60;;
20456;SDS011;10387;51.102;6.848;2022-10-17T09:45:19;6.50;;;4.63;;
20456;SDS011;10387;51.102;6.848;2022-10-17T09:48:00;6.50;;;4.23;;
20456;SDS011;10387;51.102;6.848;2022-10-17T09:50:31;6.40;;;4.60;;
20456;SDS011;10387;51.102;6.848;2022-10-17T09:55:47;5.53;;;4.30;;
20456;SDS011;10387;51.102;6.848;2022-10-17T09:58:14;7.67;;;4.80;;
20456;SDS011;10387;51.102;6.848;2022-10-17T10:00:44;5.93;;;4.67;;
20456;SDS011;10387;51.102;6.848;2022-10-17T10:03:21;6.10;;;4.63;;
20456;SDS011;10387;51.102;6.848;2022-10-17T10:08:25;8.47;;;5.13;;
20456;SDS011;10387;51.102;6.848;2022-10-17T10:10:56;6.60;;;5.30;;
20456;SDS011;10387;51.102;6.848;2022-10-17T10:13:22;5.80;;;5.10;;
20456;SDS011;10387;51.102;6.848;2022-10-17T10:15:50;6.73;;;5.00;;
20456;SDS011;10387;51.102;6.848;2022-10-17T10:18:27;5.70;;;4.93;;
20456;SDS011;10387;51.102;6.848;2022-10-17T10:21:02;6.00;;;5.20;;
20456;SDS011;10387;51.102;6.848;2022-10-17T10:23:28;7.53;;;4.90;;
20456;SDS011;10387;51.102;6.848;2022-10-17T10:26:00;6.20;;;4.60;;
20456;SDS011;10387;51.102;6.848;2022-10-17T10:28:28;6.33;;;4.63;;
20456;SDS011;10387;51.102;6.848;2022-10-17T10:30:56;5.93;;;4.80;;
20456;SDS011;10387;51.102;6.848;2022-10-17T10:33:24;7.23;;;4.73;;
20456;SDS011;10387;51.102;6.848;2022-10-17T10:35:55;8.70;;;5.63;;
20456;SDS011;10387;51.102;6.848;2022-10-17T10:38:24;5.77;;;5.17;;
20456;SDS011;10387;51.102;6.848;2022-10-17T10:40:54;6.53;;;5.00;;
20456;SDS011;10387;51.102;6.848;2022-10-17T10:43:22;8.07;;;4.70;;
20456;SDS011;10387;51.102;6.848;2022-10-17T10:45:49;6.33;;;5.00;;
20456;SDS011;10387;51.102;6.848;2022-10-17T10:48:23;6.10;;;4.70;;
20456;SDS011;10387;51.102;6.848;2022-10-17T10:50:55;7.53;;;5.40;;
20456;SDS011;10387;51.102;6.848;2022-10-17T10:53:30;5.10;;;4.57;;
20456;SDS011;10387;51.102;6.848;2022-10-17T10:55:59;5.50;;;4.93;;
20456;SDS011;10387;51.102;6.848;2022-10-17T11:00:52;6.90;;;5.10;;
20456;SDS011;10387;51.102;6.848;2022-10-17T11:03:24;8.47;;;5.20;;
20456;SDS011;10387;51.102;6.848;2022-10-17T11:05:52;6.63;;;5.07;;
20456;SDS011;10387;51.102;6.848;2022-10-17T11:08:25;7.87;;;5.03;;
20456;SDS011;10387;51.102;6.848;2022-10-17T11:11:12;9.20;;;5.40;;
20456;SDS011;10387;51.102;6.848;2022-10-17T11:14:02;7.63;;;5.00;;
20456;SDS011;10387;51.102;6.848;2022-10-17T11:17:14;8.87;;;5.30;;
20456;SDS011;10387;51.102;6.848;2022-10-17T11:19:27;7.17;;;5.60;;
20456;SDS011;10387;51.102;6.848;2022-10-17T11:24:41;6.97;;;5.47;;
20456;SDS011;10387;51.102;6.848;2022-10-17T11:27:09;8.30;;;5.57;;
20456;SDS011;10387;51.102;6.848;2022-10-17T11:29:37;6.00;;;5.37;;
20456;SDS011;10387;51.102;6.848;2022-10-17T11:32:08;6.03;;;5.43;;
20456;SDS011;10387;51.102;6.848;2022-10-17T11:34:39;6.47;;;5.47;;
20456;SDS011;10387;51.102;6.848;2022-10-17T11:37:11;7.20;;;5.33;;
20456;SDS011;10387;51.102;6.848;2022-10-17T11:39:43;5.93;;;5.33;;
20456;SDS011;10387;51.102;6.848;2022-10-17T11:42:33;7.50;;;5.20;;
20456;SDS011;10387;51.102;6.848;2022-10-17T11:45:15;5.97;;;5.37;;
20456;SDS011;10387;51.102;6.848;2022-10-17T11:50:21;7.77;;;5.20;;
20456;SDS011;10387;51.102;6.848;2022-10-17T11:52:57;8.77;;;5.37;;
20456;SDS011;10387;51.102;6.848;2022-10-17T11:55:25;7.17;;;5.47;;
20456;SDS011;10387;51.102;6.848;2022-10-17T11:57:59;7.90;;;5.33;;
20456;SDS011;10387;51.102;6.848;2022-10-17T12:03:28;7.13;;;5.07;;
20456;SDS011;10387;51.102;6.848;2022-10-17T12:06:07;8.30;;;5.00;;
20456;SDS011;10387;51.102;6.848;2022-10-17T12:08:47;7.17;;;5.20;;
20456;SDS011;10387;51.102;6.848;2022-10-17T12:11:37;6.80;;;5.53;;
20456;SDS011;10387;51.102;6.848;2022-10-17T12:16:50;5.93;;;4.77;;
20456;SDS011;10387;51.102;6.848;2022-10-17T12:19:19;8.50;;;5.13;;
20456;SDS011;10387;51.102;6.848;2022-10-17T12:21:59;7.60;;;5.33;;
20456;SDS011;10387;51.102;6.848;2022-10-17T12:24:52;5.63;;;5.13;;
20456;SDS011;10387;51.102;6.848;2022-10-17T12:32:51;6.27;;;5.23;;
20456;SDS011;10387;51.102;6.848;2022-10-17T12:35:19;7.50;;;5.50;;
20456;SDS011;10387;51.102;6.848;2022-10-17T12:45:51;5.87;;;5.13;;
20456;SDS011;10387;51.102;6.848;2022-10-17T12:53:40;7.67;;;4.40;;
20456;SDS011;10387;51.102;6.848;2022-10-17T12:56:09;7.03;;;4.83;;
20456;SDS011;10387;51.102;6.848;2022-10-17T12:58:35;7.40;;;4.97;;
20456;SDS011;10387;51.102;6.848;2022-10-17T13:01:02;11.10;;;4.80;;
20456;SDS011;10387;51.102;6.848;2022-10-17T13:03:32;7.33;;;4.60;;
20456;SDS011;10387;51.102;6.848;2022-10-17T13:06:00;6.77;;;5.03;;
20456;SDS011;10387;51.102;6.848;2022-10-17T13:08:28;7.37;;;4.80;;
20456;SDS011;10387;51.102;6.848;2022-10-17T13:10:55;5.63;;;4.10;;
20456;SDS011;10387;51.102;6.848;2022-10-17T13:16:09;6.57;;;4.83;;
20456;SDS011;10387;51.102;6.848;2022-10-17T13:18:52;7.63;;;4.47;;
20456;SDS011;10387;51.102;6.848;2022-10-17T13:21:18;8.33;;;4.73;;
20456;SDS011;10387;51.102;6.848;2022-10-17T13:23:45;8.13;;;4.77;;
20456;SDS011;10387;51.102;6.848;2022-10-17T13:26:14;6.73;;;4.40;;
20456;SDS011;10387;51.102;6.848;2022-10-17T13:28:42;6.73;;;4.30;;
20456;SDS011;10387;51.102;6.848;2022-10-17T13:31:25;6.67;;;4.30;;
20456;SDS011;10387;51.102;6.848;2022-10-17T13:33:54;7.57;;;4.30;;
20456;SDS011;10387;51.102;6.848;2022-10-17T13:36:20;5.20;;;4.43;;
20456;SDS011;10387;51.102;6.848;2022-10-17T13:38:46;5.30;;;3.90;;
20456;SDS011;10387;51.102;6.848;2022-10-17T13:41:12;7.00;;;4.17;;
20456;SDS011;10387;51.102;6.848;2022-10-17T13:43:39;7.40;;;4.47;;
20456;SDS011;10387;51.102;6.848;2022-10-17T13:46:05;8.63;;;3.93;;
20456;SDS011;10387;51.102;6.848;2022-10-17T13:48:34;6.00;;;4.43;;
20456;SDS011;10387;51.102;6.848;2022-10-17T13:51:02;5.87;;;4.10;;
20456;SDS011;10387;51.102;6.848;2022-10-17T13:53:33;7.23;;;4.30;;
20456;SDS011;10387;51.102;6.848;2022-10-17T13:56:22;7.83;;;4.37;;
20456;SDS011;10387;51.102;6.848;2022-10-17T13:58:51;6.70;;;4.60;;
20456;SDS011;10387;51.102;6.848;2022-10-17T14:01:18;7.30;;;4.20;;
20456;SDS011;10387;51.102;6.848;2022-10-17T14:03:45;7.30;;;4.40;;
20456;SDS011;10387;51.102;6.848;2022-10-17T14:06:21;6.70;;;4.53;;
20456;SDS011;10387;51.102;6.848;2022-10-17T14:09:33;10.13;;;4.57;;
20456;SDS011;10387;51.102;6.848;2022-10-17T14:11:42;5.63;;;4.50;;
20456;SDS011;10387;51.102;6.848;2022-10-17T14:14:18;6.67;;;4.37;;
20456;SDS011;10387;51.102;6.848;2022-10-17T14:16:45;7.00;;;4.60;;
20456;SDS011;10387;51.102;6.848;2022-10-17T14:19:44;6.13;;;4.07;;
20456;SDS011;10387;51.102;6.848;2022-10-17T14:22:14;6.73;;;4.37;;
20456;SDS011;10387;51.102;6.848;2022-10-17T14:24:41;5.40;;;4.50;;
20456;SDS011;10387;51.102;6.848;2022-10-17T14:29:54;6.77;;;4.67;;
20456;SDS011;10387;51.102;6.848;2022-10-17T14:32:22;6.93;;;4.40;;
20456;SDS011;10387;51.102;6.848;2022-10-17T14:34:51;6.90;;;4.37;;
20456;SDS011;10387;51.102;6.848;2022-10-17T14:39:47;6.00;;;4.10;;
20456;SDS011;10387;51.102;6.848;2022-10-17T14:42:17;7.70;;;4.77;;
20456;SDS011;10387;51.102;6.848;2022-10-17T14:44:46;7.60;;;4.10;;
20456;SDS011;10387;51.102;6.848;2022-10-17T14:47:15;5.80;;;4.13;;
20456;SDS011;10387;51.102;6.848;2022-10-17T14:49:42;7.33;;;3.90;;
20456;SDS011;10387;51.102;6.848;2022-10-17T14:54:37;7.87;;;3.70;;
20456;SDS011;10387;51.102;6.848;2022-10-17T14:59:58;6.30;;;3.83;;
20456;SDS011;10387;51.102;6.848;2022-10-17T15:02:25;6.70;;;3.63;;
20456;SDS011;10387;51.102;6.848;2022-10-17T15:04:52;7.03;;;3.87;;
20456;SDS011;10387;51.102;6.848;2022-10-17T15:07:18;5.13;;;3.50;;
20456;SDS011;10387;51.102;6.848;2022-10-17T15:09:46;5.40;;;3.63;;
20456;SDS011;10387;51.102;6.848;2022-10-17T15:12:13;5.90;;;3.30;;
20456;SDS011;10387;51.102;6.848;2022-10-17T15:14:40;6.33;;;3.87;;
20456;SDS011;10387;51.102;6.848;2022-10-17T15:17:27;8.07;;;3.97;;
20456;SDS011;10387;51.102;6.848;2022-10-17T15:19:54;6.40;;;4.50;;
20456;SDS011;10387;51.102;6.848;2022-10-17T15:22:20;5.07;;;3.90;;
20456;SDS011;10387;51.102;6.848;2022-10-17T15:24:46;7.80;;;3.87;;
20456;SDS011;10387;51.102;6.848;2022-10-17T15:27:17;6.90;;;4.07;;
20456;SDS011;10387;51.102;6.848;2022-10-17T15:29:44;8.83;;;4.57;;
20456;SDS011;10387;51.102;6.848;2022-10-17T15:32:10;5.37;;;4.03;;
20456;SDS011;10387;51.102;6.848;2022-10-17T15:34:36;10.33;;;4.20;;
20456;SDS011;10387;51.102;6.848;2022-10-17T15:37:02;6.63;;;4.20;;
20456;SDS011;10387;51.102;6.848;2022-10-17T15:39:29;7.60;;;4.20;;
20456;SDS011;10387;51.102;6.848;2022-10-17T15:41:55;8.30;;;4.13;;
20456;SDS011;10387;51.102;6.848;2022-10-17T15:44:21;5.60;;;3.90;;
20456;SDS011;10387;51.102;6.848;2022-10-17T15:46:48;9.00;;;4.50;;
20456;SDS011;10387;51.102;6.848;2022-10-17T15:49:15;7.13;;;4.47;;
20456;SDS011;10387;51.102;6.848;2022-10-17T15:51:42;8.63;;;5.07;;
20456;SDS011;10387;51.102;6.848;2022-10-17T15:54:08;6.73;;;4.13;;
20456;SDS011;10387;51.102;6.848;2022-10-17T15:56:35;6.00;;;4.30;;
20456;SDS011;10387;51.102;6.848;2022-10-17T15:59:09;8.27;;;4.10;;
20456;SDS011;10387;51.102;6.848;2022-10-17T16:01:36;5.83;;;4.33;;
20456;SDS011;10387;51.102;6.848;2022-10-17T16:04:03;7.73;;;5.00;;
20456;SDS011;10387;51.102;6.848;2022-10-17T16:06:29;7.27;;;5.23;;
20456;SDS011;10387;51.102;6.848;2022-10-17T16:08:55;8.73;;;4.80;;
20456;SDS011;10387;51.102;6.848;2022-10-17T16:11:26;8.07;;;5.40;;
20456;SDS011;10387;51.102;6.848;2022-10-17T16:13:54;8.20;;;5.50;;
20456;SDS011;10387;51.102;6.848;2022-10-17T16:16:21;8.80;;;5.40;;
20456;SDS011;10387;51.102;6.848;2022-10-17T16:18:47;7.57;;;5.93;;
20456;SDS011;10387;51.102;6.848;2022-10-17T16:21:14;6.77;;;5.67;;
20456;SDS011;10387;51.102;6.848;2022-10-17T16:23:41;8.80;;;6.03;;
20456;SDS011;10387;51.102;6.848;2022-10-17T16:26:07;11.93;;;6.83;;
20456;SDS011;10387;51.102;6.848;2022-10-17T16:28:34;9.87;;;7.00;;
20456;SDS011;10387;51.102;6.848;2022-10-17T16:31:00;9.90;;;6.93;;
20456;SDS011;10387;51.102;6.848;2022-10-17T16:33:26;8.57;;;6.80;;
20456;SDS011;10387;51.102;6.848;2022-10-17T16:35:52;9.43;;;7.33;;
20456;SDS011;10387;51.102;6.848;2022-10-17T16:38:19;11.83;;;8.10;;
20456;SDS011;10387;51.102;6.848;2022-10-17T16:40:45;9.27;;;7.70;;